Time;durP1;ratioP1;P1;durP2;ratioP2;P2;SDS_P1;SDS_P2;PMS_P1;PMS_P2;Temp;Humidity;BMP_temperature;BMP_pressure;BME280_temperature;BME280_humidity;BME280_pressure;Samples;Min_cycle;Max_cycle;Signal;HPM_P1;HPM_P2
2020/12/12 00:02:09;;;;;;;16.20;13.00;;;;;;;2.60;86.94;93729.09;5015698;28;20214;-78
2020/12/12 00:04:35;;;;;;;15.47;12.53;;;;;;;2.57;86.95;93720.06;5025455;28;20563;-78
2020/12/12 00:07:01;;;;;;;16.43;12.97;;;;;;;2.64;86.54;93717.63;5015690;28;20202;-78
2020/12/12 00:09:27;;;;;;;15.50;12.40;;;;;;;2.62;86.47;93711.94;5032780;28;20217;-77
2020/12/12 00:11:53;;;;;;;16.60;13.33;;;;;;;2.62;86.46;93709.41;5034331;28;20217;-77
2020/12/12 00:14:19;;;;;;;16.70;13.03;;;;;;;2.63;86.67;93709.22;5024156;28;20233;-78
2020/12/12 00:16:45;;;;;;;17.40;13.33;;;;;;;2.61;86.55;93712.91;5035076;28;20201;-78
2020/12/12 00:19:11;;;;;;;17.17;12.83;;;;;;;2.54;86.76;93710.25;5032921;28;20252;-77
2020/12/12 00:21:37;;;;;;;15.93;12.60;;;;;;;2.56;86.62;93694.84;5034477;28;20669;-77
2020/12/12 00:24:03;;;;;;;17.10;13.10;;;;;;;2.57;86.86;93709.13;5024582;28;20319;-78
2020/12/12 00:26:29;;;;;;;14.93;12.63;;;;;;;2.59;86.67;93704.66;5014709;28;20207;-79
2020/12/12 00:28:55;;;;;;;16.40;12.23;;;;;;;2.74;85.58;93702.91;5025272;28;20226;-78
2020/12/12 00:31:21;;;;;;;18.03;13.53;;;;;;;2.74;85.53;93706.25;5033390;28;20206;-78
2020/12/12 00:33:48;;;;;;;16.13;12.50;;;;;;;2.88;85.26;93708.97;5032579;28;20218;-78
2020/12/12 00:36:14;;;;;;;14.83;12.27;;;;;;;2.97;84.30;93711.22;5034677;28;20206;-77
2020/12/12 00:38:40;;;;;;;16.40;12.57;;;;;;;3.07;83.52;93705.91;5033674;28;20202;-78
2020/12/12 00:41:06;;;;;;;15.47;12.27;;;;;;;3.04;83.29;93701.94;5019434;28;20213;-77
2020/12/12 00:43:32;;;;;;;15.27;12.53;;;;;;;2.94;83.94;93703.16;5021138;28;20272;-77
2020/12/12 00:45:59;;;;;;;16.80;13.50;;;;;;;2.90;83.97;93707.03;5028504;28;20597;-78
2020/12/12 00:48:25;;;;;;;15.90;12.93;;;;;;;2.84;84.50;93695.03;5014673;28;20670;-78
2020/12/12 00:50:51;;;;;;;16.30;12.83;;;;;;;2.74;85.40;93687.66;5025105;28;20194;-81
2020/12/12 00:53:17;;;;;;;17.83;13.27;;;;;;;2.76;85.21;93694.16;5028959;28;20226;-78
2020/12/12 00:55:43;;;;;;;16.00;12.60;;;;;;;2.85;84.99;93684.69;5013756;28;20682;-78
2020/12/12 00:58:10;;;;;;;16.07;12.53;;;;;;;2.77;85.30;93689.84;5017497;28;20202;-78
2020/12/12 01:00:39;;;;;;;15.23;12.20;;;;;;;2.75;85.82;93691.78;5024994;28;20257;-77
2020/12/12 01:03:06;;;;;;;14.90;12.83;;;;;;;2.76;85.60;93691.59;5016947;28;20647;-77
2020/12/12 01:05:32;;;;;;;18.27;12.27;;;;;;;2.80;85.70;93686.19;5033968;28;20202;-78
2020/12/12 01:07:59;;;;;;;16.23;12.30;;;;;;;2.86;84.62;93683.75;5031949;28;20202;-78
2020/12/12 01:10:25;;;;;;;17.07;12.70;;;;;;;2.92;84.77;93689.84;5021026;28;20276;-77
2020/12/12 01:12:51;;;;;;;16.67;13.13;;;;;;;2.98;84.44;93692.47;5032537;28;20276;-77
2020/12/12 01:15:18;;;;;;;15.57;13.07;;;;;;;3.01;84.40;93688.81;5013711;28;20210;-77
2020/12/12 01:17:44;;;;;;;15.07;12.87;;;;;;;3.10;83.80;93688.50;5014431;28;20207;-78
2020/12/12 01:20:10;;;;;;;14.27;12.27;;;;;;;3.12;83.35;93694.22;5027916;28;20191;-78
2020/12/12 01:22:35;;;;;;;14.83;13.20;;;;;;;3.18;82.76;93700.34;5014152;28;20218;-78
2020/12/12 01:25:03;;;;;;;15.47;12.57;;;;;;;3.28;82.50;93702.59;5032175;28;20720;-78
2020/12/12 01:27:28;;;;;;;15.33;12.67;;;;;;;3.27;82.77;93701.81;5033977;28;20198;-79
2020/12/12 01:29:55;;;;;;;14.03;11.50;;;;;;;3.38;82.06;93695.47;5018508;28;20219;-78
2020/12/12 01:32:21;;;;;;;14.83;12.00;;;;;;;3.50;81.41;93703.44;5034007;28;20206;-79
2020/12/12 01:34:47;;;;;;;13.17;11.70;;;;;;;3.53;80.74;93698.78;5017243;28;20198;-78
2020/12/12 01:37:13;;;;;;;15.67;12.90;;;;;;;3.47;81.02;93694.41;5014124;28;20203;-77
2020/12/12 01:39:39;;;;;;;15.47;12.83;;;;;;;3.44;81.16;93698.13;5020069;28;20191;-78
2020/12/12 01:42:06;;;;;;;14.63;12.67;;;;;;;3.37;81.34;93696.44;5032444;28;20220;-78
2020/12/12 01:44:32;;;;;;;15.30;12.00;;;;;;;3.27;81.87;93690.88;5020287;28;20219;-78
2020/12/12 01:46:58;;;;;;;16.03;13.20;;;;;;;3.17;82.71;93680.19;5031883;28;20220;-78
2020/12/12 01:49:24;;;;;;;15.07;12.47;;;;;;;3.18;82.88;93679.22;5037458;28;20226;-78
2020/12/12 01:51:50;;;;;;;14.50;12.00;;;;;;;3.30;82.27;93681.09;5020112;28;20199;-77
2020/12/12 01:54:17;;;;;;;14.10;12.27;;;;;;;3.25;81.76;93675.78;5031045;28;20313;-79
2020/12/12 01:56:43;;;;;;;14.40;12.33;;;;;;;3.28;82.14;93670.31;5037589;28;20209;-78
2020/12/12 01:59:10;;;;;;;15.13;12.00;;;;;;;3.35;81.78;93678.81;5024443;28;20199;-79
2020/12/12 02:01:39;;;;;;;15.97;12.67;;;;;;;3.41;81.57;93684.97;5031083;28;20689;-79
2020/12/12 02:04:06;;;;;;;15.10;12.27;;;;;;;3.42;81.22;93674.59;5025666;28;20210;-77
2020/12/12 02:06:31;;;;;;;15.37;12.30;;;;;;;3.36;81.38;93672.78;5017293;28;20282;-78
2020/12/12 02:08:57;;;;;;;15.23;12.47;;;;;;;3.29;81.43;93666.81;5027559;28;20229;-78
2020/12/12 02:11:23;;;;;;;13.83;12.30;;;;;;;3.21;81.89;93659.31;5036581;28;20195;-77
2020/12/12 02:13:50;;;;;;;14.93;12.83;;;;;;;3.19;82.52;93653.63;5056615;22;20232;-75
2020/12/12 02:16:18;;;;;;;15.40;12.63;;;;;;;3.16;82.43;93653.97;5035364;28;20206;-76
2020/12/12 02:18:45;;;;;;;15.97;12.60;;;;;;;3.02;83.48;93653.03;5035020;28;20198;-76
2020/12/12 02:21:11;;;;;;;14.67;12.73;;;;;;;2.97;83.57;93659.63;5025673;28;20825;-75
2020/12/12 02:23:37;;;;;;;13.63;11.47;;;;;;;2.97;83.78;93654.53;5022571;28;20260;-78
2020/12/12 02:26:04;;;;;;;15.10;12.10;;;;;;;2.93;83.68;93656.63;5036692;28;20198;-77
2020/12/12 02:28:35;;;;;;;16.00;12.37;;;;;;;2.98;83.73;93661.19;5031666;28;20286;-78
2020/12/12 02:31:01;;;;;;;14.67;11.93;;;;;;;2.95;83.13;93659.78;5024823;28;20252;-78
2020/12/12 02:33:27;;;;;;;14.27;12.00;;;;;;;3.06;83.29;93663.66;5031436;28;20219;-78
2020/12/12 02:35:55;;;;;;;13.13;11.23;;;;;;;3.08;82.77;93666.78;5017441;28;20206;-78
2020/12/12 02:38:21;;;;;;;14.03;12.03;;;;;;;3.10;82.67;93655.47;5025689;28;20654;-79
2020/12/12 02:40:48;;;;;;;15.40;12.17;;;;;;;3.08;82.78;93654.06;5033557;28;20249;-78
2020/12/12 02:43:14;;;;;;;13.67;11.60;;;;;;;2.93;83.98;93651.56;5033765;28;20214;-78
2020/12/12 02:45:44;;;;;;;15.37;12.80;;;;;;;2.88;84.33;93656.41;5017113;28;20210;-77
2020/12/12 02:48:09;;;;;;;14.30;11.83;;;;;;;2.75;84.80;93641.75;5016424;28;20211;-78
2020/12/12 02:50:35;;;;;;;15.60;11.97;;;;;;;2.68;85.54;93638.38;5020276;28;20265;-77
2020/12/12 02:53:02;;;;;;;14.33;11.33;;;;;;;2.68;86.23;93642.66;5030749;28;20213;-78
2020/12/12 02:55:28;;;;;;;14.37;11.80;;;;;;;2.78;85.33;93653.31;5015375;28;20202;-80
2020/12/12 02:57:54;;;;;;;16.20;12.07;;;;;;;2.81;85.32;93647.09;5016965;28;20218;-80
2020/12/12 03:00:23;;;;;;;13.70;11.23;;;;;;;2.86;84.30;93652.47;5035902;28;20635;-77
2020/12/12 03:02:49;;;;;;;13.37;11.40;;;;;;;2.90;84.33;93649.34;5022714;28;20202;-78
2020/12/12 03:05:15;;;;;;;13.90;11.50;;;;;;;3.01;84.02;93643.06;5034379;28;20202;-78
2020/12/12 03:07:41;;;;;;;14.67;11.50;;;;;;;2.98;83.76;93651.03;5017118;28;20199;-78
2020/12/12 03:10:07;;;;;;;14.60;11.90;;;;;;;2.97;84.33;93644.38;5016649;28;20225;-78
2020/12/12 03:12:37;;;;;;;15.13;11.97;;;;;;;2.95;84.64;93646.28;5032653;28;20209;-78
2020/12/12 03:15:05;;;;;;;14.13;12.03;;;;;;;2.91;84.83;93643.31;5018025;28;20751;-78
2020/12/12 03:17:31;;;;;;;15.30;12.10;;;;;;;2.90;84.51;93640.94;5015840;28;20207;-77
2020/12/12 03:19:57;;;;;;;14.53;12.13;;;;;;;2.80;85.28;93638.69;5031409;28;20549;-77
2020/12/12 03:22:23;;;;;;;13.97;11.47;;;;;;;2.70;86.01;93645.78;5023235;28;20199;-77
2020/12/12 03:24:49;;;;;;;14.80;11.80;;;;;;;2.72;86.42;93641.31;5016506;28;20732;-77
2020/12/12 03:27:15;;;;;;;14.00;11.70;;;;;;;2.74;86.15;93645.25;5015631;28;20214;-78
2020/12/12 03:29:41;;;;;;;14.20;11.57;;;;;;;2.82;85.23;93641.06;5025548;28;20218;-78
2020/12/12 03:32:09;;;;;;;13.30;10.50;;;;;;;2.82;84.82;93652.00;5035722;28;20268;-78
2020/12/12 03:34:36;;;;;;;13.10;10.83;;;;;;;2.83;85.07;93647.72;5031085;28;20218;-79
2020/12/12 03:37:02;;;;;;;14.57;11.73;;;;;;;2.89;84.86;93647.78;5030622;28;20195;-79
2020/12/12 03:39:28;;;;;;;14.70;12.67;;;;;;;2.86;84.92;93643.06;5034096;28;20213;-77
2020/12/12 03:41:53;;;;;;;12.50;10.40;;;;;;;2.82;84.61;93638.53;5034718;28;20194;-77
2020/12/12 03:44:19;;;;;;;12.17;10.60;;;;;;;2.78;84.87;93633.78;5034917;28;20222;-78
2020/12/12 03:46:45;;;;;;;10.87;9.77;;;;;;;2.76;85.00;93640.00;5033177;28;20220;-78
2020/12/12 03:49:12;;;;;;;14.20;10.60;;;;;;;2.87;84.51;93643.88;5033626;28;20292;-78
2020/12/12 03:51:38;;;;;;;12.63;10.73;;;;;;;2.88;84.08;93643.69;5035629;28;20198;-77
2020/12/12 03:54:04;;;;;;;12.27;10.37;;;;;;;2.93;83.86;93638.06;5034331;28;20284;-76
2020/12/12 03:56:30;;;;;;;12.07;10.47;;;;;;;3.03;83.74;93648.75;5021173;28;20228;-78
2020/12/12 03:58:56;;;;;;;13.03;10.77;;;;;;;3.09;83.38;93648.81;5024934;28;20190;-78
2020/12/12 04:01:22;;;;;;;12.40;10.33;;;;;;;3.21;82.20;93649.16;5034544;28;20198;-78
2020/12/12 04:03:48;;;;;;;12.70;10.57;;;;;;;3.20;82.05;93645.03;5026745;28;20226;-79
2020/12/12 04:06:14;;;;;;;13.53;10.77;;;;;;;3.19;82.47;93646.00;5025988;28;20205;-78
2020/12/12 04:08:40;;;;;;;11.60;10.03;;;;;;;3.28;81.75;93646.66;5027976;28;20221;-79
2020/12/12 04:11:06;;;;;;;12.07;10.27;;;;;;;3.37;81.33;93648.91;5015380;28;20559;-78
2020/12/12 04:13:32;;;;;;;12.03;10.63;;;;;;;3.37;80.75;93643.84;5019347;28;20225;-78
2020/12/12 04:15:58;;;;;;;11.80;10.50;;;;;;;3.29;81.17;93646.47;5025436;28;20203;-79
2020/12/12 04:18:24;;;;;;;10.93;9.83;;;;;;;3.23;81.19;93649.75;5025645;28;20194;-78
2020/12/12 04:20:50;;;;;;;12.97;10.87;;;;;;;3.29;81.23;93643.16;5034949;28;20210;-78
2020/12/12 04:23:17;;;;;;;12.00;10.33;;;;;;;3.39;80.84;93656.38;5024710;28;20214;-78
2020/12/12 04:25:43;;;;;;;11.20;9.87;;;;;;;3.51;80.35;93659.22;5017007;28;20199;-78
2020/12/12 04:28:08;;;;;;;11.40;9.90;;;;;;;3.55;79.55;93650.25;5034579;28;20623;-78
2020/12/12 04:30:34;;;;;;;11.70;10.03;;;;;;;3.59;79.63;93659.91;5022249;28;20276;-78
2020/12/12 04:33:00;;;;;;;10.27;9.07;;;;;;;3.69;79.32;93662.13;5013042;28;20269;-76
2020/12/12 04:35:27;;;;;;;10.63;9.57;;;;;;;3.72;78.46;93654.94;5014290;28;20207;-76
2020/12/12 04:37:56;;;;;;;12.97;10.63;;;;;;;3.67;78.46;93661.53;5018637;28;20209;-74
2020/12/12 04:40:23;;;;;;;11.27;9.97;;;;;;;3.63;78.24;93656.03;5023910;28;20203;-77
2020/12/12 04:42:49;;;;;;;11.43;9.73;;;;;;;3.58;79.44;93655.78;5025316;28;20206;-76
2020/12/12 04:45:20;;;;;;;11.27;10.07;;;;;;;3.67;79.49;93659.75;5024556;28;20202;-76
2020/12/12 04:47:49;;;;;;;11.47;10.27;;;;;;;3.60;79.32;93650.50;5012807;28;20203;-75
2020/12/12 04:50:17;;;;;;;11.83;10.40;;;;;;;3.45;79.91;93650.56;5020030;28;20684;-76
2020/12/12 04:52:43;;;;;;;12.27;10.43;;;;;;;3.39;79.98;93652.06;5032184;28;20202;-75
2020/12/12 04:55:10;;;;;;;11.27;9.90;;;;;;;3.31;80.78;93646.31;5023993;28;20198;-76
2020/12/12 04:57:38;;;;;;;11.20;9.60;;;;;;;3.30;81.16;93655.69;5032623;28;20628;-76
2020/12/12 05:00:09;;;;;;;11.37;9.50;;;;;;;3.27;81.03;93652.72;5019342;28;20203;-76
2020/12/12 05:02:37;;;;;;;11.60;9.97;;;;;;;3.25;81.42;93649.59;5012708;28;20206;-75
2020/12/12 05:05:04;;;;;;;12.27;10.00;;;;;;;3.25;81.15;93654.66;5013917;28;20199;-76
2020/12/12 05:07:30;;;;;;;12.07;10.10;;;;;;;3.31;81.32;93653.94;5028490;28;20653;-76
2020/12/12 05:09:55;;;;;;;11.17;9.93;;;;;;;3.36;80.41;93654.97;5021070;28;20230;-76
2020/12/12 05:12:22;;;;;;;11.00;9.57;;;;;;;3.41;80.27;93660.31;5028024;28;20202;-76
2020/12/12 05:14:53;;;;;;;10.57;9.40;;;;;;;3.50;80.22;93660.97;5022361;28;20233;-76
2020/12/12 05:17:20;;;;;;;11.93;9.20;;;;;;;3.65;79.42;93653.31;5012453;28;20265;-76
2020/12/12 05:19:48;;;;;;;11.10;9.57;;;;;;;3.74;78.77;93664.94;5012665;28;20194;-78
2020/12/12 05:22:14;;;;;;;11.27;9.53;;;;;;;3.75;78.01;93657.13;5014443;28;20678;-79
2020/12/12 05:24:40;;;;;;;10.97;9.43;;;;;;;3.67;78.92;93658.97;5029771;28;20222;-78
2020/12/12 05:27:06;;;;;;;11.33;9.60;;;;;;;3.63;78.98;93660.34;5034103;28;20252;-79
2020/12/12 05:29:32;;;;;;;10.37;9.27;;;;;;;3.74;78.84;93670.81;5033159;28;20728;-78
2020/12/12 05:31:59;;;;;;;10.87;9.67;;;;;;;3.86;78.63;93676.19;5033754;28;20210;-77
2020/12/12 05:34:27;;;;;;;9.90;8.90;;;;;;;3.97;78.13;93675.72;5036012;28;20217;-77
2020/12/12 05:36:53;;;;;;;10.17;9.03;;;;;;;4.07;77.87;93683.03;5034433;28;20626;-78
2020/12/12 05:39:19;;;;;;;10.70;8.77;;;;;;;4.10;77.14;93680.91;5032785;28;20256;-78
2020/12/12 05:41:47;;;;;;;11.40;9.27;;;;;;;4.17;77.09;93686.06;5033643;28;20217;-78
2020/12/12 05:44:13;;;;;;;10.13;8.70;;;;;;;4.21;76.83;93691.56;5031353;28;20237;-79
2020/12/12 05:46:39;;;;;;;9.80;8.60;;;;;;;4.24;77.24;93694.53;5032684;28;20577;-79
2020/12/12 05:49:06;;;;;;;10.37;9.27;;;;;;;4.29;76.62;93697.31;5021758;28;20282;-78
2020/12/12 05:51:33;;;;;;;10.10;8.90;;;;;;;4.33;76.87;93695.19;5022230;28;20248;-77
2020/12/12 05:54:00;;;;;;;9.90;8.90;;;;;;;4.33;76.70;93695.19;5022051;28;20221;-79
2020/12/12 05:56:30;;;;;;;14.60;12.83;;;;;;;4.33;76.65;93697.72;5021279;28;20191;-79
2020/12/12 05:58:56;;;;;;;15.30;12.20;;;;;;;4.28;77.01;93708.47;5024797;28;20967;-75
2020/12/12 06:01:23;;;;;;;19.53;15.33;;;;;;;4.31;76.88;93700.47;5023061;28;20198;-76
2020/12/12 06:03:54;;;;;;;12.37;10.83;;;;;;;4.30;76.66;93703.97;5019614;28;20226;-76
2020/12/12 06:06:25;;;;;;;12.27;10.97;;;;;;;4.32;76.97;93706.34;5031704;28;20202;-76
2020/12/12 06:09:04;;;;;;;11.63;10.23;;;;;;;4.34;76.60;93710.28;5027618;28;20199;-76
2020/12/12 06:11:32;;;;;;;13.53;10.90;;;;;;;4.32;76.33;93714.78;5012430;28;20211;-77
2020/12/12 06:14:00;;;;;;;10.80;9.70;;;;;;;4.31;76.06;93713.19;5025273;28;20230;-76
2020/12/12 06:16:27;;;;;;;11.47;10.03;;;;;;;4.19;76.05;93701.16;5031604;28;20209;-74
2020/12/12 06:19:08;;;;;;;11.60;9.77;;;;;;;4.15;76.67;93705.81;5019304;28;20202;-76
2020/12/12 06:21:36;;;;;;;11.23;9.83;;;;;;;4.14;76.75;93707.59;5022659;28;20210;-76
2020/12/12 06:24:05;;;;;;;12.27;10.13;;;;;;;4.12;76.54;93718.91;5030944;28;20218;-76
2020/12/12 06:26:55;;;;;;;11.30;10.10;;;;;;;4.16;76.75;93720.91;5031643;28;20225;-75
2020/12/12 06:29:24;;;;;;;11.67;9.70;;;;;;;4.17;76.71;93714.06;5031606;28;20226;-75
2020/12/12 06:31:53;;;;;;;11.87;10.07;;;;;;;4.20;76.57;93718.00;5030626;28;20253;-76
2020/12/12 06:34:40;;;;;;;19.97;15.03;;;;;;;4.44;93.71;93715.03;5027161;28;20246;-71
2020/12/12 06:37:07;;;;;;;12.90;8.80;;;;;;;5.22;100.00;93721.59;5025166;28;20209;-74
2020/12/12 06:39:44;;;;;;;11.73;10.27;;;;;;;5.60;82.14;93718.59;5034968;28;20673;-78
2020/12/12 06:42:29;;;;;;;10.40;9.40;;;;;;;5.52;74.79;93727.22;5031566;28;20613;-77
2020/12/12 06:44:55;;;;;;;11.33;9.70;;;;;;;5.28;75.09;93728.50;5021430;28;20225;-78
2020/12/12 06:47:36;;;;;;;10.73;9.30;;;;;;;5.00;74.51;93728.56;5035290;28;20208;-76
2020/12/12 06:50:11;;;;;;;11.60;10.40;;;;;;;4.77;76.62;93730.59;5030648;28;20304;-75
2020/12/12 06:52:38;;;;;;;11.57;10.37;;;;;;;4.69;76.29;93734.06;5025184;28;20722;-75
2020/12/12 06:55:07;;;;;;;11.17;9.70;;;;;;;4.66;76.67;93738.72;5030990;28;20199;-76
2020/12/12 06:57:41;;;;;;;11.47;10.27;;;;;;;4.64;75.86;93741.47;5015493;28;20203;-76
2020/12/12 07:00:17;;;;;;;11.60;10.17;;;;;;;4.63;75.87;93749.28;5018299;28;20227;-75
2020/12/12 07:02:53;;;;;;;11.37;10.03;;;;;;;4.53;76.16;93754.72;5033025;28;20197;-76
2020/12/12 07:05:20;;;;;;;11.27;10.07;;;;;;;4.47;76.89;93747.81;5029485;28;20198;-76
2020/12/12 07:07:47;;;;;;;11.27;10.03;;;;;;;4.37;78.56;93750.69;5014830;28;20207;-76
2020/12/12 07:10:13;;;;;;;11.13;9.90;;;;;;;4.39;77.81;93751.28;5017276;28;20225;-76
2020/12/12 07:12:40;;;;;;;11.00;9.87;;;;;;;4.47;77.45;93761.34;5025943;28;20198;-77
2020/12/12 07:15:06;;;;;;;11.90;9.93;;;;;;;4.50;77.25;93762.72;5034275;28;20224;-76
2020/12/12 07:17:33;;;;;;;11.33;8.50;;;;;;;4.75;93.65;93761.34;5023389;28;20689;-72
2020/12/12 07:20:00;;;;;;;27.03;20.73;;;;;;;4.96;80.54;93767.38;5030185;28;20608;-77
2020/12/12 07:22:28;;;;;;;15.13;12.93;;;;;;;4.92;76.69;93766.97;5032774;28;20203;-78
2020/12/12 07:24:55;;;;;;;13.97;11.53;;;;;;;4.65;77.73;93763.44;5034871;28;20246;-78
2020/12/12 07:27:21;;;;;;;11.07;9.93;;;;;;;4.56;78.00;93767.09;5034496;28;20674;-76
2020/12/12 07:29:47;;;;;;;11.13;9.97;;;;;;;4.40;78.10;93773.25;5024201;28;20309;-77
2020/12/12 07:32:13;;;;;;;12.63;10.27;;;;;;;4.38;77.90;93771.84;5020351;28;20203;-78
2020/12/12 07:34:39;;;;;;;18.37;15.93;;;;;;;4.33;78.26;93774.16;5033894;28;20217;-78
2020/12/12 07:37:06;;;;;;;12.30;10.50;;;;;;;4.32;78.40;93768.25;5037025;28;20211;-77
2020/12/12 07:39:35;;;;;;;12.97;11.03;;;;;;;4.35;78.57;93778.09;5033361;28;20220;-78
2020/12/12 07:42:04;;;;;;;13.60;11.43;;;;;;;4.38;78.31;93775.19;5033285;28;20197;-77
2020/12/12 07:44:32;;;;;;;11.67;10.40;;;;;;;4.40;78.07;93769.91;5029402;28;20214;-78
2020/12/12 07:47:00;;;;;;;12.27;10.53;;;;;;;4.42;78.91;93778.94;5014156;28;20203;-77
2020/12/12 07:49:26;;;;;;;11.90;10.23;;;;;;;4.44;79.17;93786.38;5017706;28;20225;-77
2020/12/12 07:52:06;;;;;;;12.17;9.47;;;;;;;4.48;78.58;93785.84;5032692;28;20198;-77
2020/12/12 07:54:39;;;;;;;10.93;9.83;;;;;;;4.43;77.63;93785.59;5029917;28;20729;-77
2020/12/12 07:57:09;;;;;;;11.40;10.20;;;;;;;4.43;78.71;93783.03;5014653;28;20748;-78
2020/12/12 07:59:35;;;;;;;10.70;9.60;;;;;;;4.51;80.16;93793.13;5022884;28;20210;-78
2020/12/12 08:02:03;;;;;;;10.70;9.60;;;;;;;4.56;78.68;93796.88;5026334;28;20696;-78
2020/12/12 08:04:29;;;;;;;10.53;9.43;;;;;;;4.60;77.84;93796.34;5018091;28;20230;-76
2020/12/12 08:06:55;;;;;;;12.77;10.03;;;;;;;4.65;77.75;93798.31;5028097;28;20199;-78
2020/12/12 08:09:22;;;;;;;15.20;12.27;;;;;;;4.68;77.37;93797.94;5013149;28;20241;-79
2020/12/12 08:12:00;;;;;;;11.67;10.13;;;;;;;4.70;76.85;93801.13;5019747;28;20214;-77
2020/12/12 08:14:29;;;;;;;14.27;10.37;;;;;;;4.61;77.28;93802.22;5078712;22;20225;-77
2020/12/12 08:16:57;;;;;;;13.30;10.60;;;;;;;4.55;77.70;93808.06;5067297;28;20201;-76
2020/12/12 08:19:24;;;;;;;11.53;10.00;;;;;;;4.51;78.30;93807.63;5055769;28;20622;-78
2020/12/12 08:22:02;;;;;;;11.50;9.83;;;;;;;4.30;78.86;93808.41;5049555;28;20296;-77
2020/12/12 08:24:28;;;;;;;13.03;10.67;;;;;;;4.24;79.78;93815.97;5036682;28;20228;-80
2020/12/12 08:26:54;;;;;;;12.10;10.77;;;;;;;4.29;80.08;93816.22;5039245;28;20202;-77
2020/12/12 08:29:23;;;;;;;12.67;10.87;;;;;;;4.37;80.05;93824.56;5056334;28;20638;-79
2020/12/12 08:31:49;;;;;;;11.77;10.30;;;;;;;4.47;80.25;93829.34;5050310;28;20202;-78
2020/12/12 08:34:19;;;;;;;11.63;10.40;;;;;;;4.48;79.86;93830.91;5036108;28;20217;-78
2020/12/12 08:36:45;;;;;;;14.63;10.73;;;;;;;4.50;80.20;93832.31;5036338;28;20198;-77
2020/12/12 08:39:12;;;;;;;14.90;11.03;;;;;;;4.51;80.24;93835.66;5037200;28;20202;-77
2020/12/12 08:41:39;;;;;;;12.77;10.83;;;;;;;4.45;81.30;93838.91;5051275;28;20570;-76
2020/12/12 08:44:06;;;;;;;16.60;10.80;;;;;;;4.46;80.68;93841.28;5050473;28;20606;-78
2020/12/12 08:46:33;;;;;;;47.27;24.07;;;;;;;4.48;80.74;93838.56;5032647;28;20209;-78
2020/12/12 08:49:00;;;;;;;43.33;19.10;;;;;;;4.55;80.38;93848.81;5037099;28;20198;-78
2020/12/12 08:51:27;;;;;;;16.93;11.20;;;;;;;4.58;80.02;93844.16;5052191;28;20222;-78
2020/12/12 08:53:53;;;;;;;13.13;10.30;;;;;;;4.60;79.94;93841.44;5050820;28;20221;-79
2020/12/12 08:56:30;;;;;;;13.17;10.50;;;;;;;4.65;80.09;93836.53;5052393;28;20292;-78
2020/12/12 08:58:58;;;;;;;12.57;10.83;;;;;;;4.72;79.93;93829.75;5038955;28;20204;-79
2020/12/12 09:01:30;;;;;;;11.70;10.27;;;;;;;4.71;80.87;93841.72;5045320;28;20204;-78
2020/12/12 09:04:02;;;;;;;11.27;9.90;;;;;;;4.77;79.66;93842.75;5045925;28;20295;-78
2020/12/12 09:06:29;;;;;;;13.27;10.27;;;;;;;4.81;79.09;93847.28;5042937;28;20201;-79
2020/12/12 09:09:04;;;;;;;17.13;10.33;;;;;;;4.82;79.43;93846.28;5038515;28;20203;-78
2020/12/12 09:11:31;;;;;;;11.93;10.47;;;;;;;4.84;79.70;93852.00;5046143;28;20221;-77
2020/12/12 09:13:57;;;;;;;11.33;9.83;;;;;;;4.86;79.93;93854.38;5050894;28;20221;-78
2020/12/12 09:16:24;;;;;;;13.07;9.83;;;;;;;4.86;79.20;93850.06;5042425;28;20201;-78
2020/12/12 09:18:50;;;;;;;10.87;9.37;;;;;;;4.95;79.50;93855.03;5044791;28;20225;-76
2020/12/12 09:21:17;;;;;;;11.43;9.57;;;;;;;5.01;79.62;93857.63;5036811;28;20198;-77
2020/12/12 09:23:43;;;;;;;10.50;9.07;;;;;;;5.02;79.17;93854.09;5032645;28;20544;-74
2020/12/12 09:26:09;;;;;;;11.37;9.80;;;;;;;5.04;78.92;93854.72;5041679;28;20198;-76
2020/12/12 09:28:36;;;;;;;9.20;8.20;;;;;;;5.12;78.74;93859.69;5040374;28;20252;-76
2020/12/12 09:31:02;;;;;;;9.80;8.47;;;;;;;5.19;78.85;93867.41;5043963;28;20253;-77
2020/12/12 09:33:28;;;;;;;9.67;8.67;;;;;;;5.14;78.06;93864.59;5046513;28;20236;-77
2020/12/12 09:35:55;;;;;;;10.43;9.27;;;;;;;5.21;78.49;93876.41;5035042;28;20606;-76
2020/12/12 09:38:22;;;;;;;10.13;8.60;;;;;;;5.27;78.69;93876.66;5045200;28;20202;-77
2020/12/12 09:40:50;;;;;;;15.43;11.53;;;;;;;5.32;78.39;93880.22;5038342;28;20590;-77
2020/12/12 09:43:17;;;;;;;13.23;11.27;;;;;;;5.38;78.70;93883.81;5036617;28;20277;-75
2020/12/12 09:45:43;;;;;;;15.10;12.87;;;;;;;5.44;78.20;93885.59;5050202;28;20225;-77
2020/12/12 09:48:09;;;;;;;14.33;11.50;;;;;;;5.48;78.53;93885.03;5052339;28;20678;-77
2020/12/12 09:50:35;;;;;;;12.30;9.70;;;;;;;5.54;78.66;93886.06;5051810;28;20237;-77
2020/12/12 09:53:02;;;;;;;10.63;9.20;;;;;;;5.53;79.75;93887.03;5051957;28;20208;-77
2020/12/12 09:55:29;;;;;;;8.67;7.47;;;;;;;5.57;78.31;93887.47;5052257;28;20218;-77
2020/12/12 09:57:56;;;;;;;8.30;7.50;;;;;;;5.61;77.71;93891.19;5052052;28;20197;-77
2020/12/12 10:00:22;;;;;;;8.67;7.47;;;;;;;5.66;77.31;93883.78;5052576;28;20732;-77
2020/12/12 10:02:47;;;;;;;7.87;7.07;;;;;;;5.66;77.23;93886.31;5052137;28;20361;-77
2020/12/12 10:05:13;;;;;;;8.80;7.50;;;;;;;5.66;77.15;93893.97;5052811;28;20217;-77
2020/12/12 10:07:39;;;;;;;7.80;6.83;;;;;;;5.61;76.99;93884.31;5056116;28;20300;-77
2020/12/12 10:10:05;;;;;;;8.70;7.53;;;;;;;5.50;78.65;93884.88;5055627;28;20225;-77
2020/12/12 10:12:32;;;;;;;8.83;7.90;;;;;;;5.48;79.44;93881.69;5055776;28;20548;-77
2020/12/12 10:14:58;;;;;;;10.27;8.77;;;;;;;5.49;80.12;93886.63;5055124;28;20580;-77
2020/12/12 10:17:28;;;;;;;9.13;8.20;;;;;;;5.52;80.78;93890.56;5058910;28;20205;-76
2020/12/12 10:19:54;;;;;;;9.47;8.00;;;;;;;5.59;80.97;93888.81;5055896;28;20257;-76
2020/12/12 10:22:20;;;;;;;11.70;7.87;;;;;;;5.63;81.35;93895.13;5055016;28;20205;-77
2020/12/12 10:24:45;;;;;;;8.20;7.40;;;;;;;5.68;81.31;93894.59;5055575;28;20225;-77
2020/12/12 10:27:11;;;;;;;9.83;8.10;;;;;;;5.72;81.88;93909.34;5055059;28;20588;-78
2020/12/12 10:29:38;;;;;;;10.37;8.37;;;;;;;5.72;83.06;93900.91;5055370;28;20201;-77
2020/12/12 10:32:05;;;;;;;9.63;7.87;;;;;;;5.69;84.39;93893.59;5055120;28;20224;-77
2020/12/12 10:34:31;;;;;;;8.20;7.30;;;;;;;5.74;84.12;93891.28;5055225;28;20221;-79
2020/12/12 10:36:57;;;;;;;12.40;7.97;;;;;;;5.81;83.96;93887.78;5054763;28;20209;-78
2020/12/12 10:39:27;;;;;;;7.97;6.90;;;;;;;5.88;83.81;93886.09;5055886;28;20206;-79
2020/12/12 10:41:53;;;;;;;9.10;7.03;;;;;;;6.03;83.30;93874.94;5055634;28;20200;-76
2020/12/12 10:44:19;;;;;;;7.33;6.03;;;;;;;6.23;83.13;93878.34;5055342;28;20225;-77
2020/12/12 10:46:46;;;;;;;6.50;5.90;;;;;;;6.33;83.72;93878.78;5054664;28;20205;-78
2020/12/12 10:49:12;;;;;;;6.13;5.30;;;;;;;6.38;80.94;93883.31;5055324;28;20584;-79
2020/12/12 10:51:45;;;;;;;5.87;5.27;;;;;;;6.40;79.71;93878.78;5054635;28;20221;-77
2020/12/12 10:54:11;;;;;;;6.47;5.87;;;;;;;6.43;82.16;93891.19;5054886;28;20639;-78
2020/12/12 10:56:37;;;;;;;6.83;5.37;;;;;;;6.53;81.68;93887.31;5054743;28;20201;-78
2020/12/12 10:59:03;;;;;;;5.67;5.10;;;;;;;6.52;80.57;93890.84;5054706;28;20201;-77
2020/12/12 11:01:29;;;;;;;5.23;4.73;;;;;;;6.54;80.94;93893.22;5047195;28;20190;-77
2020/12/12 11:03:56;;;;;;;6.87;5.17;;;;;;;6.57;81.23;93895.34;5050652;28;20235;-77
2020/12/12 11:06:21;;;;;;;7.40;4.60;;;;;;;6.63;79.33;93907.38;5053437;28;20205;-77
2020/12/12 11:08:47;;;;;;;6.17;5.00;;;;;;;6.66;78.16;93922.34;5052290;28;20200;-78
2020/12/12 11:11:13;;;;;;;6.33;5.10;;;;;;;6.58;78.88;93918.16;5040408;28;20218;-78
2020/12/12 11:13:39;;;;;;;6.87;5.03;;;;;;;6.58;78.74;93925.84;5039255;28;20201;-77
2020/12/12 11:16:05;;;;;;;6.93;5.00;;;;;;;6.58;79.11;93925.06;5052201;28;20300;-77
2020/12/12 11:18:31;;;;;;;6.43;5.50;;;;;;;6.55;79.73;93925.44;5052619;28;20206;-78
2020/12/12 11:20:58;;;;;;;5.17;4.67;;;;;;;6.54;79.84;93926.44;5051983;28;20193;-77
2020/12/12 11:23:24;;;;;;;5.57;4.53;;;;;;;6.51;80.14;93927.63;5048329;28;20207;-77
2020/12/12 11:25:49;;;;;;;6.50;4.70;;;;;;;6.46;80.95;93937.63;5047476;28;20225;-76
2020/12/12 11:28:15;;;;;;;4.70;4.30;;;;;;;6.47;80.79;93933.28;5049292;28;20244;-77
2020/12/12 11:30:41;;;;;;;4.57;4.10;;;;;;;6.50;80.45;93940.59;5032813;28;20238;-77